Time;durP1;ratioP1;P1;durP2;ratioP2;P2;SDS_P1;SDS_P2;PMS_P1;PMS_P2;Temp;Humidity;BMP_temperature;BMP_pressure;BME280_temperature;BME280_humidity;BME280_pressure;Samples;Min_cycle;Max_cycle;Signal;HPM_P1;HPM_P2
2022/04/22 00:00:47;;;;;;;;;;;;;;;17.29;67.69;100720.59;5022973;28;1906;-33
2022/04/22 00:03:14;;;;;;;;;;;;;;;17.28;67.86;100713.53;5036552;28;1065;-33
2022/04/22 00:05:41;;;;;;;;;;;;;;;17.32;68.25;100724.81;5015594;28;1846;-33
2022/04/22 00:08:10;;;;;;;;;;;;;;;17.28;67.78;100716.19;5031719;28;1849;-33
2022/04/22 00:11:29;;;;;;;;;;;;;;;17.30;67.54;100711.56;5030354;28;1759;-34
2022/04/22 00:13:32;;;;;;;;;;;;;;;17.30;68.06;100712.41;5030975;28;1984;-34
2022/04/22 00:15:58;;;;;;;;;;;;;;;17.28;68.04;100717.03;5035524;28;1605;-33
2022/04/22 00:18:27;;;;;;;;;;;;;;;17.29;67.69;100726.78;5020500;28;958;-34
2022/04/22 00:20:56;;;;;;;;;;;;;;;17.27;67.53;100719.88;5035295;28;2044;-33
2022/04/22 00:23:23;;;;;;;;;;;;;;;17.27;68.35;100718.03;5025918;28;1713;-33
2022/04/22 00:25:55;;;;;;;;;;;;;;;17.25;67.81;100722.66;5026287;28;1624;-33
2022/04/22 00:28:23;;;;;;;;;;;;;;;17.28;67.70;100741.09;5019652;28;1755;-33
2022/04/22 00:30:50;;;;;;;;;;;;;;;17.25;67.78;100735.19;5024486;28;1740;-34
2022/04/22 00:33:20;;;;;;;;;;;;;;;17.25;67.63;100719.13;5015973;28;1738;-33
2022/04/22 00:35:49;;;;;;;;;;;;;;;17.24;67.57;100717.44;5029567;28;1939;-33
2022/04/22 00:38:18;;;;;;;;;;;;;;;17.24;67.06;100718.28;5034494;28;1850;-33
2022/04/22 00:40:48;;;;;;;;;;;;;;;17.25;67.64;100737.84;5033916;28;1980;-33
2022/04/22 00:43:17;;;;;;;;;;;;;;;17.25;67.95;100727.16;5027636;28;1822;-33
2022/04/22 00:45:44;;;;;;;;;;;;;;;17.23;67.89;100734.41;5033362;28;1783;-35
2022/04/22 00:48:19;;;;;;;;;;;;;;;17.24;67.76;100726.28;5026344;28;1097;-34
2022/04/22 00:50:46;;;;;;;;;;;;;;;17.22;68.19;100711.34;5033127;28;1787;-34
2022/04/22 00:53:12;;;;;;;;;;;;;;;17.20;67.59;100716.81;5021225;28;1561;-34
2022/04/22 00:55:44;;;;;;;;;;;;;;;17.19;67.71;100720.47;5028599;28;1441;-34
2022/04/22 00:58:11;;;;;;;;;;;;;;;17.20;68.17;100705.28;5034705;28;1612;-35
2022/04/22 01:00:41;;;;;;;;;;;;;;;17.18;67.71;100708.09;5033570;28;1902;-34
2022/04/22 01:03:09;;;;;;;;;;;;;;;17.19;67.76;100704.44;5034465;28;1357;-34
2022/04/22 01:11:07;;;;;;;;;;;;;;;17.20;67.94;100705.28;5027782;28;1472;-35
2022/04/22 01:13:34;;;;;;;;;;;;;;;17.55;66.76;100707.75;5033420;28;1686;-34
2022/04/22 01:16:04;;;;;;;;;;;;;;;17.70;65.68;100708.28;5028233;28;1453;-34
2022/04/22 01:18:31;;;;;;;;;;;;;;;17.67;66.37;100692.50;5031415;28;1579;-35
2022/04/22 01:21:03;;;;;;;;;;;;;;;17.82;66.18;100712.59;5023517;28;1989;-35
2022/04/22 01:23:34;;;;;;;;;;;;;;;17.96;65.80;100702.59;5031816;28;1381;-34
2022/04/22 01:26:02;;;;;;;;;;;;;;;17.99;65.98;100707.69;5022530;28;1481;-34
2022/04/22 01:28:28;;;;;;;;;;;;;;;18.16;65.71;100687.50;5029168;28;1628;-34
2022/04/22 01:30:57;;;;;;;;;;;;;;;18.26;65.10;100689.28;5033963;28;1620;-34
2022/04/22 01:33:26;;;;;;;;;;;;;;;18.31;64.68;100694.22;5021075;28;1544;-34
2022/04/22 01:35:55;;;;;;;;;;;;;;;18.27;64.88;100690.13;5027880;28;1584;-34
2022/04/22 01:38:28;;;;;;;;;;;;;;;18.28;65.11;100687.31;5027946;28;1462;-34
2022/04/22 01:40:58;;;;;;;;;;;;;;;18.35;64.74;100684.09;5031558;28;1991;-34
2022/04/22 01:43:26;;;;;;;;;;;;;;;18.42;65.03;100691.47;5026955;28;1607;-32
2022/04/22 01:45:56;;;;;;;;;;;;;;;18.40;64.91;100684.53;5032832;28;1477;-32
2022/04/22 01:48:25;;;;;;;;;;;;;;;18.58;64.48;100679.41;5034205;28;1088;-32
2022/04/22 01:50:54;;;;;;;;;;;;;;;18.49;64.74;100679.22;5032275;28;1926;-32
2022/04/22 01:53:27;;;;;;;;;;;;;;;18.53;64.06;100690.53;5027232;28;1677;-32
2022/04/22 01:55:57;;;;;;;;;;;;;;;18.53;64.04;100682.50;5020847;28;1860;-32
2022/04/22 01:58:26;;;;;;;;;;;;;;;18.53;64.22;100690.53;5029507;28;1505;-32
2022/04/22 02:00:52;;;;;;;;;;;;;;;18.55;64.35;100679.69;5026772;23;3596;-63
2022/04/22 02:03:19;;;;;;;;;;;;;;;18.81;63.08;100677.41;4966342;28;1409;-63
2022/04/22 02:05:46;;;;;;;;;;;;;;;18.92;63.57;100663.91;4962852;28;1696;-64
2022/04/22 02:08:13;;;;;;;;;;;;;;;19.07;62.32;100657.16;4952015;28;1607;-56
2022/04/22 02:10:41;;;;;;;;;;;;;;;19.03;62.76;100666.44;4960804;28;1449;-60
2022/04/22 02:13:08;;;;;;;;;;;;;;;19.12;62.27;100659.44;4964312;28;1278;-61
2022/04/22 02:15:34;;;;;;;;;;;;;;;19.00;62.18;100652.47;4960782;28;1411;-59
2022/04/22 02:18:01;;;;;;;;;;;;;;;18.85;63.17;100649.34;4967096;28;1438;-60
2022/04/22 02:20:28;;;;;;;;;;;;;;;18.97;63.09;100653.59;4951036;28;1918;-55
2022/04/22 02:22:54;;;;;;;;;;;;;;;19.02;62.41;100659.41;4961046;28;1570;-62
2022/04/22 02:25:21;;;;;;;;;;;;;;;19.01;62.17;100649.66;4962050;28;1581;-57
2022/04/22 02:30:33;;;;;;;;;;;;;;;19.11;62.98;100656.88;4956047;28;1609;-62
2022/04/22 02:33:00;;;;;;;;;;;;;;;19.13;62.16;100645.03;4959681;28;1331;-62
2022/04/22 02:35:26;;;;;;;;;;;;;;;19.14;62.51;100661.94;4957763;28;1562;-61
2022/04/22 02:37:53;;;;;;;;;;;;;;;19.09;61.98;100662.38;4960664;28;1346;-57
2022/04/22 02:45:46;;;;;;;;;;;;;;;19.01;62.29;100655.03;4956290;28;1509;-57
2022/04/22 02:48:13;;;;;;;;;;;;;;;18.98;62.94;100659.81;4964858;28;1084;-61
2022/04/22 02:50:40;;;;;;;;;;;;;;;18.96;62.69;100648.38;4961755;28;1461;-57
2022/04/22 02:53:06;;;;;;;;;;;;;;;18.99;62.47;100648.97;4969541;28;1965;-57
2022/04/22 02:55:35;;;;;;;;;;;;;;;19.05;62.59;100661.81;4967845;28;1616;-57
2022/04/22 02:58:03;;;;;;;;;;;;;;;19.02;62.77;100659.41;4970316;28;1599;-57
2022/04/22 03:00:30;;;;;;;;;;;;;;;19.01;62.36;100655.03;4966648;28;1914;-62
2022/04/22 03:02:56;;;;;;;;;;;;;;;19.13;63.10;100660.28;4966695;28;1353;-57
2022/04/22 03:05:23;;;;;;;;;;;;;;;19.11;62.47;100648.84;4965423;28;1391;-62
2022/04/22 03:07:49;;;;;;;;;;;;;;;19.10;62.35;100653.38;4961227;28;1302;-57
2022/04/22 03:10:17;;;;;;;;;;;;;;;19.10;62.13;100634.59;4967570;28;1601;-62
2022/04/22 03:12:43;;;;;;;;;;;;;;;19.07;62.61;100640.22;4968889;28;1629;-61
2022/04/22 03:15:11;;;;;;;;;;;;;;;19.16;62.92;100646.56;4968309;28;1470;-57
2022/04/22 03:17:39;;;;;;;;;;;;;;;19.11;62.27;100656.88;4968075;28;1122;-61
2022/04/22 03:20:06;;;;;;;;;;;;;;;19.17;62.62;100630.34;4965066;28;1907;-57
2022/04/22 03:22:33;;;;;;;;;;;;;;;19.15;62.95;100652.94;4957164;28;1473;-57
2022/04/22 03:25:01;;;;;;;;;;;;;;;19.27;61.65;100647.28;4964183;28;1398;-61
2022/04/22 03:27:27;;;;;;;;;;;;;;;19.42;62.14;100645.06;4962212;28;1409;-57
2022/04/22 03:29:54;;;;;;;;;;;;;;;19.32;62.28;100638.84;4968908;28;1393;-57
2022/04/22 03:32:22;;;;;;;;;;;;;;;19.28;62.51;100634.75;4968180;28;1091;-61
2022/04/22 03:34:48;;;;;;;;;;;;;;;19.30;62.11;100646.19;4965257;28;1527;-61
2022/04/22 03:37:15;;;;;;;;;;;;;;;19.28;61.88;100632.06;4967138;28;1370;-61
2022/04/22 03:39:41;;;;;;;;;;;;;;;18.89;62.89;100626.66;4968271;28;1981;-58
2022/04/22 03:42:08;;;;;;;;;;;;;;;18.54;64.28;100649.34;4968124;28;1185;-62
2022/04/22 03:44:36;;;;;;;;;;;;;;;18.56;64.32;100647.41;4967201;28;1024;-62
2022/04/22 03:47:03;;;;;;;;;;;;;;;18.65;63.19;100641.22;4972153;28;1582;-62
2022/04/22 03:49:31;;;;;;;;;;;;;;;18.51;64.52;100628.22;4961077;28;1556;-58
2022/04/22 03:51:58;;;;;;;;;;;;;;;18.34;64.79;100636.88;4970047;28;1483;-61
2022/04/22 03:54:25;;;;;;;;;;;;;;;18.19;64.69;100621.19;4965866;28;1617;-62
2022/04/22 03:59:36;;;;;;;;;;;;;;;18.05;65.40;100638.44;4966751;28;1214;-61
2022/04/22 04:02:03;;;;;;;;;;;;;;;17.97;65.60;100632.06;4961162;28;1669;-61
2022/04/22 04:04:30;;;;;;;;;;;;;;;17.93;65.75;100644.84;4959885;28;1564;-57
2022/04/22 04:06:58;;;;;;;;;;;;;;;17.91;65.90;100640.63;4967854;28;1341;-61
2022/04/22 04:17:38;;;;;;;;;;;;;;;17.80;65.96;100639.66;4968355;28;756;-62
2022/04/22 04:25:35;;;;;;;;;;;;;;;17.72;66.01;100631.44;4967556;28;1554;-57
2022/04/22 04:28:02;;;;;;;;;;;;;;;17.69;66.18;100640.56;4970489;28;1272;-61
2022/04/22 04:30:29;;;;;;;;;;;;;;;17.69;65.96;100637.06;4966174;28;1325;-57
2022/04/22 04:32:56;;;;;;;;;;;;;;;17.66;66.13;100626.59;4969403;28;1346;-57
2022/04/22 04:35:22;;;;;;;;;;;;;;;17.65;66.08;100631.13;4972150;28;1595;-62
2022/04/22 04:37:49;;;;;;;;;;;;;;;17.64;66.91;100637.44;4959207;28;1449;-61
2022/04/22 04:40:17;;;;;;;;;;;;;;;17.62;66.46;100626.00;4964522;28;1977;-62
2022/04/22 04:42:43;;;;;;;;;;;;;;;17.59;66.29;100623.63;4962883;28;1281;-57
2022/04/22 04:45:10;;;;;;;;;;;;;;;17.60;65.97;100632.47;4966744;28;1382;-57
2022/04/22 04:47:39;;;;;;;;;;;;;;;17.60;66.14;100616.44;4968669;28;1004;-61
2022/04/22 04:50:06;;;;;;;;;;;;;;;17.56;66.38;100626.53;4963893;28;1452;-58
2022/04/22 04:52:33;;;;;;;;;;;;;;;17.54;66.58;100624.97;4955550;28;1865;-61
2022/04/22 04:55:00;;;;;;;;;;;;;;;17.63;66.34;100614.34;4969872;28;1675;-66
2022/04/22 04:57:28;;;;;;;;;;;;;;;17.69;66.58;100616.50;4972751;28;10412;-57
2022/04/22 04:59:54;;;;;;;;;;;;;;;17.99;66.17;100624.75;4965669;28;1977;-59
2022/04/22 05:02:21;;;;;;;;;;;;;;;18.05;65.72;100621.53;4966164;28;1170;-62
2022/04/22 05:04:48;;;;;;;;;;;;;;;18.15;65.81;100627.78;4973950;28;1629;-64
2022/04/22 05:07:14;;;;;;;;;;;;;;;18.12;65.88;100635.22;4969104;28;1332;-62
2022/04/22 05:09:41;;;;;;;;;;;;;;;18.24;65.58;100632.34;4967493;28;1977;-66
2022/04/22 05:12:10;;;;;;;;;;;;;;;18.18;65.26;100635.53;4968584;28;1349;-65
2022/04/22 05:14:38;;;;;;;;;;;;;;;18.09;66.05;100631.84;4606098;28;10000075;-64
2022/04/22 05:17:05;;;;;;;;;;;;;;;18.05;66.06;100638.44;4956850;28;1736;-66
2022/04/22 05:19:31;;;;;;;;;;;;;;;18.12;65.70;100637.91;4945051;28;1456;-63
2022/04/22 05:21:58;;;;;;;;;;;;;;;18.19;65.53;100655.13;4955868;28;1981;-62
2022/04/22 05:24:25;;;;;;;;;;;;;;;18.22;65.44;100653.06;4959575;28;1600;-62
2022/04/22 05:26:51;;;;;;;;;;;;;;;18.27;65.61;100650.81;4964169;28;981;-57
2022/04/22 05:34:40;;;;;;;;;;;;;;;18.52;64.52;100662.03;4947771;28;2574;-63
2022/04/22 05:37:06;;;;;;;;;;;;;;;18.60;65.06;100656.88;4962712;28;1517;-56
2022/04/22 05:39:33;;;;;;;;;;;;;;;18.59;65.29;100673.06;4957964;28;1304;-61
2022/04/22 05:42:00;;;;;;;;;;;;;;;18.52;65.48;100666.53;4961400;28;1914;-56
2022/04/22 05:44:26;;;;;;;;;;;;;;;18.54;65.30;100660.06;4964417;28;1712;-64
2022/04/22 05:46:53;;;;;;;;;;;;;;;18.64;64.53;100642.22;4964129;28;1729;-60
2022/04/22 05:49:21;;;;;;;;;;;;;;;18.61;64.89;100663.91;4941430;28;1616;-60
2022/04/22 05:51:47;;;;;;;;;;;;;;;18.76;65.34;100647.44;4965259;28;1429;-59
2022/04/22 05:54:14;;;;;;;;;;;;;;;18.71;64.66;100649.72;4958599;28;1405;-59
2022/04/22 05:56:41;;;;;;;;;;;;;;;19.08;63.03;100615.13;4967099;28;1399;-58
2022/04/22 05:59:07;;;;;;;;;;;;;;;19.04;63.98;100582.41;4962247;28;1848;-57
2022/04/22 06:01:34;;;;;;;;;;;;;;;18.86;64.34;100638.50;4957639;28;1968;-69
2022/04/22 06:04:00;;;;;;;;;;;;;;;18.77;64.90;100633.09;4957469;28;1183;-77
2022/04/22 06:06:28;;;;;;;;;;;;;;;19.05;63.73;100669.84;4957338;28;1729;-57
2022/04/22 06:11:40;;;;;;;;;;;;;;;19.13;63.60;100704.00;4956772;28;1541;-67
2022/04/22 06:14:09;;;;;;;;;;;;;;;19.20;62.95;100710.50;4959374;28;1737;-73
2022/04/22 06:16:35;;;;;;;;;;;;;;;19.20;63.87;100701.59;4959429;28;1308;-56
2022/04/22 06:19:02;;;;;;;;;;;;;;;18.96;64.69;100724.28;4955014;28;1139;-62
2022/04/22 06:21:32;;;;;;;;;;;;;;;19.03;63.97;100732.63;4695894;28;10000386;-65
2022/04/22 06:23:59;;;;;;;;;;;;;;;19.04;64.00;100743.19;4915002;28;11131;-65
2022/04/22 06:26:26;;;;;;;;;;;;;;;19.15;64.03;100749.44;4947331;28;1344;-64
2022/04/22 06:28:52;;;;;;;;;;;;;;;19.03;63.90;100735.28;4948979;28;1272;-65
2022/04/22 06:31:20;;;;;;;;;;;;;;;19.15;63.91;100744.91;4954941;28;1395;-64
2022/04/22 06:33:46;;;;;;;;;;;;;;;19.21;63.91;100747.03;4954230;28;1911;-53
2022/04/22 06:36:14;;;;;;;;;;;;;;;19.28;62.72;100747.38;4953118;28;1365;-53
2022/04/22 06:38:45;;;;;;;;;;;;;;;19.35;63.43;100764.56;4952834;28;1473;-54
2022/04/22 06:46:41;;;;;;;;;;;;;;;19.39;63.40;100757.94;4925404;28;11392;-53
2022/04/22 06:49:11;;;;;;;;;;;;;;;19.47;63.12;100743.84;4954116;28;1465;-52
2022/04/22 06:51:39;;;;;;;;;;;;;;;19.63;62.15;100745.97;4960218;28;1230;-72
2022/04/22 06:54:07;;;;;;;;;;;;;;;19.35;63.02;100755.69;4959610;28;1792;-54
2022/04/22 06:56:34;;;;;;;;;;;;;;;19.38;63.21;100755.44;4962087;28;1358;-52
2022/04/22 06:59:01;;;;;;;;;;;;;;;19.51;63.70;100758.69;4961615;28;1306;-69
2022/04/22 07:01:28;;;;;;;;;;;;;;;19.55;63.44;100751.19;4961875;28;1985;-66
2022/04/22 07:03:55;;;;;;;;;;;;;;;19.50;62.74;100740.91;4955943;29;1346;-65
2022/04/22 07:06:22;;;;;;;;;;;;;;;19.50;63.78;100745.41;4960841;28;1650;-63
2022/04/22 07:08:49;;;;;;;;;;;;;;;19.51;62.92;100744.44;4959466;28;1519;-61
2022/04/22 07:11:21;;;;;;;;;;;;;;;19.38;63.28;100734.81;4958605;28;1490;-54
2022/04/22 07:13:48;;;;;;;;;;;;;;;19.36;64.12;100741.28;4960113;28;1473;-54
2022/04/22 07:16:17;;;;;;;;;;;;;;;19.45;62.73;100735.94;4966505;28;1547;-64
2022/04/22 07:18:44;;;;;;;;;;;;;;;19.41;63.90;100739.88;4960580;28;991;-63
2022/04/22 07:21:11;;;;;;;;;;;;;;;19.52;63.55;100730.88;4962672;28;1914;-55
2022/04/22 07:23:38;;;;;;;;;;;;;;;19.69;63.76;100726.63;4962867;28;1929;-64
2022/04/22 07:26:07;;;;;;;;;;;;;;;19.77;63.28;100716.06;4960629;28;1448;-54
2022/04/22 07:28:36;;;;;;;;;;;;;;;19.79;62.53;100719.47;4958610;28;1343;-63
2022/04/22 07:31:03;;;;;;;;;;;;;;;19.80;63.83;100723.03;4955589;28;1246;-62
2022/04/22 07:33:30;;;;;;;;;;;;;;;19.64;63.30;100723.56;4960122;28;1156;-55
2022/04/22 07:35:57;;;;;;;;;;;;;;;19.38;64.97;100721.41;4960368;28;1451;-66
2022/04/22 07:38:24;;;;;;;;;;;;;;;19.52;64.71;100698.69;4964911;28;1358;-63
2022/04/22 07:40:51;;;;;;;;;;;;;;;19.63;64.08;100697.69;4965291;28;1906;-54
2022/04/22 07:48:48;;;;;;;;;;;;;;;19.50;65.23;100673.84;4963541;28;709;-60
2022/04/22 07:51:16;;;;;;;;;;;;;;;19.67;65.14;100664.22;4970175;28;1689;-50
2022/04/22 07:53:42;;;;;;;;;;;;;;;19.60;65.16;100655.09;4963363;28;1537;-52
2022/04/22 07:56:09;;;;;;;;;;;;;;;19.65;63.52;100642.06;4966076;28;1392;-60
2022/04/22 07:58:36;;;;;;;;;;;;;;;19.64;63.33;100649.28;4959537;28;1384;-68
2022/04/22 08:01:04;;;;;;;;;;;;;;;19.68;63.87;100639.13;4960309;28;1910;-59
2022/04/22 08:03:31;;;;;;;;;;;;;;;19.79;63.82;100625.56;4958309;28;1324;-66
2022/04/22 08:05:57;;;;;;;;;;;;;;;19.50;64.44;100622.03;4958519;28;1457;-63
2022/04/22 08:08:28;;;;;;;;;;;;;;;19.64;64.07;100617.09;4971150;28;1448;-67
2022/04/22 08:10:55;;;;;;;;;;;;;;;19.78;62.69;100612.31;4961377;28;1212;-68
2022/04/22 08:13:21;;;;;;;;;;;;;;;19.77;63.49;100595.34;4966311;28;1636;-65
2022/04/22 08:15:48;;;;;;;;;;;;;;;19.68;63.08;100575.56;4961817;28;1172;-67
2022/04/22 08:18:16;;;;;;;;;;;;;;;19.64;63.95;100566.13;4962250;28;1311;-67
2022/04/22 08:20:43;;;;;;;;;;;;;;;19.53;63.86;100565.44;4964737;28;1780;-64
2022/04/22 08:23:09;;;;;;;;;;;;;;;19.53;63.41;100558.22;4966990;28;1902;-73
2022/04/22 08:25:36;;;;;;;;;;;;;;;19.60;63.08;100558.50;4964686;28;1320;-69
2022/04/22 08:28:03;;;;;;;;;;;;;;;19.62;63.43;100540.44;4968314;28;1645;-68
2022/04/22 08:30:29;;;;;;;;;;;;;;;19.57;63.50;100551.56;4969301;28;1434;-66
2022/04/22 08:32:56;;;;;;;;;;;;;;;19.83;63.41;100561.72;4961205;28;1313;-56
2022/04/22 08:35:24;;;;;;;;;;;;;;;19.70;63.16;100564.69;4963084;28;1469;-56
2022/04/22 08:37:50;;;;;;;;;;;;;;;19.60;63.40;100551.31;4964072;28;1686;-55
2022/04/22 08:40:17;;;;;;;;;;;;;;;19.76;62.92;100561.47;4960993;28;1974;-65
2022/04/22 08:42:46;;;;;;;;;;;;;;;19.64;63.19;100566.13;4958430;28;1911;-54
2022/04/22 08:45:13;;;;;;;;;;;;;;;19.66;62.44;100563.31;4956850;28;1300;-67
2022/04/22 08:50:27;;;;;;;;;;;;;;;19.81;63.30;100564.53;4954524;28;1195;-56
2022/04/22 08:52:55;;;;;;;;;;;;;;;19.64;62.91;100557.22;4958882;28;1344;-56
2022/04/22 08:55:23;;;;;;;;;;;;;;;19.76;63.27;100550.72;4963186;28;1542;-54
2022/04/22 08:57:50;;;;;;;;;;;;;;;19.75;63.29;100549.03;4962793;28;1360;-55
2022/04/22 09:00:18;;;;;;;;;;;;;;;19.93;62.34;100556.31;4961446;28;1496;-54
2022/04/22 09:02:44;;;;;;;;;;;;;;;20.01;61.75;100533.09;4957391;28;1978;-53
2022/04/22 09:05:11;;;;;;;;;;;;;;;19.98;62.05;100541.47;4960158;28;1383;-53
2022/04/22 09:07:42;;;;;;;;;;;;;;;20.04;62.73;100523.94;4955316;28;1493;-51
2022/04/22 09:10:08;;;;;;;;;;;;;;;19.92;63.06;100527.81;4961454;28;1552;-52
2022/04/22 09:12:36;;;;;;;;;;;;;;;19.82;63.20;100511.75;4963040;28;1404;-66
2022/04/22 09:15:03;;;;;;;;;;;;;;;19.82;62.68;100512.56;4959382;28;1475;-67
2022/04/22 09:17:30;;;;;;;;;;;;;;;19.88;63.09;100521.03;4963115;28;1036;-53
2022/04/22 09:19:57;;;;;;;;;;;;;;;19.88;62.84;100513.00;4973400;28;1732;-50
2022/04/22 09:22:24;;;;;;;;;;;;;;;19.80;62.53;100501.16;4964903;28;1899;-51
2022/04/22 09:24:53;;;;;;;;;;;;;;;19.84;62.08;100510.59;4965135;28;1397;-53
2022/04/22 09:27:20;;;;;;;;;;;;;;;19.84;62.20;100499.84;4954947;28;1392;-54
2022/04/22 09:29:56;;;;;;;;;;;;;;;19.88;62.09;100505.78;4952190;28;1565;-52
2022/04/22 09:32:23;;;;;;;;;;;;;;;19.84;62.98;100494.50;4956073;28;1365;-52
2022/04/22 09:34:50;;;;;;;;;;;;;;;19.85;62.08;100487.28;4950909;28;1518;-54
2022/04/22 09:42:48;;;;;;;;;;;;;;;19.65;63.75;100494.53;4955289;28;1976;-51
2022/04/22 09:45:15;;;;;;;;;;;;;;;19.90;63.01;100492.22;4955698;28;1586;-67
2022/04/22 09:47:42;;;;;;;;;;;;;;;20.00;62.58;100482.28;4959469;28;1395;-65
2022/04/22 09:50:11;;;;;;;;;;;;;;;20.12;61.47;100475.72;4945372;28;1783;-51
2022/04/22 09:52:43;;;;;;;;;;;;;;;20.25;61.09;100486.94;4962786;28;1593;-53
2022/04/22 09:55:14;;;;;;;;;;;;;;;20.30;61.67;100474.91;4955538;28;1428;-56
2022/04/22 09:57:53;;;;;;;;;;;;;;;20.40;61.89;100473.00;4962066;28;1586;-55
2022/04/22 10:00:20;;;;;;;;;;;;;;;20.22;62.31;100467.59;4956580;28;1427;-55
2022/04/22 10:02:49;;;;;;;;;;;;;;;20.24;62.80;100433.41;4953897;28;1984;-55
2022/04/22 10:05:17;;;;;;;;;;;;;;;20.27;62.72;100452.75;4953234;28;1485;-65
2022/04/22 10:07:44;;;;;;;;;;;;;;;20.38;62.20;100464.25;4956581;28;1313;-54
2022/04/22 10:10:12;;;;;;;;;;;;;;;20.29;62.91;100471.34;4958646;28;1578;-67
2022/04/22 10:12:39;;;;;;;;;;;;;;;20.40;62.59;100473.00;4950587;28;992;-65
2022/04/22 10:15:08;;;;;;;;;;;;;;;20.37;62.35;100462.53;4952792;28;1653;-66
2022/04/22 10:17:37;;;;;;;;;;;;;;;20.10;63.60;100466.97;4955889;28;1525;-56
2022/04/22 10:20:04;;;;;;;;;;;;;;;19.80;65.29;100450.16;4955395;28;1589;-54
2022/04/22 10:22:33;;;;;;;;;;;;;;;19.63;65.91;100457.13;4959367;28;1903;-66
2022/04/22 10:25:02;;;;;;;;;;;;;;;19.46;66.78;100449.84;4954761;28;1649;-54
2022/04/22 10:27:33;;;;;;;;;;;;;;;19.58;66.31;100450.53;4952632;28;1625;-63
2022/04/22 10:30:00;;;;;;;;;;;;;;;19.90;65.58;100439.38;4953454;28;1601;-55
2022/04/22 10:32:27;;;;;;;;;;;;;;;19.95;64.53;100441.63;4919065;28;11028;-54
2022/04/22 10:34:57;;;;;;;;;;;;;;;19.83;66.26;100465.94;4946616;28;1421;-55
2022/04/22 10:37:25;;;;;;;;;;;;;;;19.57;66.59;100462.22;4953167;28;1469;-62
2022/04/22 10:39:52;;;;;;;;;;;;;;;19.46;67.67;100450.69;4954864;28;1415;-57
2022/04/22 10:42:19;;;;;;;;;;;;;;;19.39;67.40;100456.78;4961466;28;1977;-53
2022/04/22 10:47:39;;;;;;;;;;;;;;;19.14;67.97;100451.06;4958391;28;1466;-54
2022/04/22 10:50:21;;;;;;;;;;;;;;;19.03;69.25;100443.19;4953086;28;1447;-54
2022/04/22 10:52:55;;;;;;;;;;;;;;;18.94;68.72;100436.84;4956189;28;1717;-56
2022/04/22 10:55:22;;;;;;;;;;;;;;;18.99;69.47;100429.22;4956270;28;1514;-68
2022/04/22 10:57:51;;;;;;;;;;;;;;;18.98;69.17;100416.81;4952980;28;1526;-68
2022/04/22 11:00:31;;;;;;;;;;;;;;;18.99;69.41;100415.81;4957622;28;1350;-64
2022/04/22 11:03:03;;;;;;;;;;;;;;;19.00;69.09;100420.19;4882766;28;11874;-66
2022/04/22 11:05:37;;;;;;;;;;;;;;;18.88;70.08;100410.63;4965242;28;1472;-54
2022/04/22 11:08:05;;;;;;;;;;;;;;;18.88;69.93;100424.03;4955390;28;1590;-66
2022/04/22 11:10:47;;;;;;;;;;;;;;;18.82;69.86;100429.94;4957975;28;1744;-54
2022/04/22 11:13:27;;;;;;;;;;;;;;;18.80;69.90;100429.22;4965384;28;1625;-54
2022/04/22 11:15:57;;;;;;;;;;;;;;;18.77;70.03;100426.81;4967641;28;1478;-66
2022/04/22 11:18:23;;;;;;;;;;;;;;;18.78;69.77;100450.81;4959206;28;1444;-53
2022/04/22 11:20:51;;;;;;;;;;;;;;;18.92;69.46;100432.59;4966295;28;1776;-65
2022/04/22 11:23:18;;;;;;;;;;;;;;;19.30;67.22;100420.97;4967797;28;1988;-54
2022/04/22 11:25:46;;;;;;;;;;;;;;;19.26;68.12;100419.59;4968799;28;1526;-54
2022/04/22 11:28:13;;;;;;;;;;;;;;;19.10;68.09;100413.97;4969929;28;1582;-66
2022/04/22 11:30:40;;;;;;;;;;;;;;;19.10;68.00;100419.31;4968291;28;1531;-60
2022/04/22 11:33:14;;;;;;;;;;;;;;;19.08;67.35;100420.31;4969703;28;1178;-50
2022/04/22 11:35:41;;;;;;;;;;;;;;;18.96;68.10;100400.03;4923657;28;11923;-49
2022/04/22 11:38:07;;;;;;;;;;;;;;;18.83;69.12;100399.50;4962643;28;1208;-50
2022/04/22 11:40:37;;;;;;;;;;;;;;;18.79;67.73;100395.38;4964992;28;1172;-61
2022/04/22 11:43:07;;;;;;;;;;;;;;;18.84;68.27;100382.41;4969023;28;1902;-61
2022/04/22 11:45:35;;;;;;;;;;;;;;;18.72;68.15;100388.91;4970204;28;1578;-61
2022/04/22 11:48:06;;;;;;;;;;;;;;;18.63;68.53;100370.03;4958892;28;1576;-50
2022/04/22 11:50:39;;;;;;;;;;;;;;;18.81;67.82;100369.31;4965585;28;1517;-61
2022/04/22 11:53:08;;;;;;;;;;;;;;;18.85;68.37;100344.78;4967579;28;1625;-64
2022/04/22 11:55:34;;;;;;;;;;;;;;;18.84;68.12;100334.19;4967682;28;1474;-52
2022/04/22 11:58:02;;;;;;;;;;;;;;;18.79;68.50;100336.44;4971527;28;1527;-56
2022/04/22 12:05:57;;;;;;;;;;;;;;;18.83;68.81;100338.72;4968583;28;1617;-58
2022/04/22 12:08:25;;;;;;;;;;;;;;;18.81;68.65;100334.50;4963343;28;1096;-62
2022/04/22 12:10:51;;;;;;;;;;;;;;;18.88;67.97;100339.13;4958265;28;1983;-60
2022/04/22 12:13:18;;;;;;;;;;;;;;;18.85;68.46;100346.63;4957996;28;1461;-61
2022/04/22 12:15:48;;;;;;;;;;;;;;;18.81;68.62;100338.00;4964757;28;1279;-53
2022/04/22 12:18:27;;;;;;;;;;;;;;;18.79;68.55;100348.03;4962838;28;1362;-62
2022/04/22 12:20:54;;;;;;;;;;;;;;;18.71;69.16;100350.56;4962945;28;1346;-63
2022/04/22 12:23:22;;;;;;;;;;;;;;;18.71;69.33;100329.13;4966290;28;1980;-58
2022/04/22 12:25:55;;;;;;;;;;;;;;;18.76;68.68;100342.94;4962434;28;1465;-62
2022/04/22 12:28:23;;;;;;;;;;;;;;;18.73;68.63;100331.66;4963275;28;1318;-63
2022/04/22 12:30:49;;;;;;;;;;;;;;;18.75;69.00;100313.63;4962515;28;1534;-53
2022/04/22 12:33:19;;;;;;;;;;;;;;;18.83;68.62;100319.13;4958666;29;1476;-52
2022/04/22 12:35:48;;;;;;;;;;;;;;;18.87;68.60;100301.78;4961775;28;1749;-51
2022/04/22 12:38:15;;;;;;;;;;;;;;;18.81;68.91;100307.72;4969235;28;1421;-60
2022/04/22 12:40:47;;;;;;;;;;;;;;;18.76;68.71;100297.41;4960670;28;1602;-60
2022/04/22 12:43:27;;;;;;;;;;;;;;;18.65;68.73;100290.38;4960323;28;1915;-61
2022/04/22 12:54:09;;;;;;;;;;;;;;;18.43;68.71;100256.75;4967107;28;720;-61
2022/04/22 12:56:38;;;;;;;;;;;;;;;18.44;68.54;100258.44;4968854;28;1977;-61
2022/04/22 12:59:06;;;;;;;;;;;;;;;18.37;68.79;100243.94;4963328;28;1438;-52
2022/04/22 13:01:34;;;;;;;;;;;;;;;18.33;69.03;100233.66;4967177;28;1337;-53
2022/04/22 13:04:00;;;;;;;;;;;;;;;18.29;69.04;100228.59;4975521;28;1979;-60
2022/04/22 13:06:37;;;;;;;;;;;;;;;18.32;69.09;100231.97;4965533;28;1609;-61
2022/04/22 13:09:04;;;;;;;;;;;;;;;18.27;69.07;100214.50;4969710;28;1605;-53
2022/04/22 13:11:30;;;;;;;;;;;;;;;18.28;69.01;100210.88;4963331;28;1414;-53
2022/04/22 13:13:59;;;;;;;;;;;;;;;18.28;69.45;100216.22;4959124;28;1577;-60
2022/04/22 13:16:25;;;;;;;;;;;;;;;18.25;69.42;100227.19;4969499;28;1581;-61
2022/04/22 13:18:52;;;;;;;;;;;;;;;18.25;68.96;100227.19;4961389;28;979;-61
2022/04/22 13:21:18;;;;;;;;;;;;;;;18.25;69.61;100212.97;4964071;28;1693;-52
2022/04/22 13:23:45;;;;;;;;;;;;;;;18.19;69.17;100198.34;4971126;28;1927;-61
2022/04/22 13:26:11;;;;;;;;;;;;;;;18.18;69.20;100199.31;4966502;28;1491;-61
2022/04/22 13:28:38;;;;;;;;;;;;;;;18.19;69.24;100201.00;4966159;28;1515;-61
2022/04/22 13:31:06;;;;;;;;;;;;;;;18.18;69.28;100187.75;4967118;28;1283;-53
2022/04/22 13:33:34;;;;;;;;;;;;;;;18.17;69.10;100189.59;4971051;28;1036;-52
2022/04/22 13:36:01;;;;;;;;;;;;;;;18.19;68.96;100174.25;4969993;28;1791;-61
2022/04/22 13:38:28;;;;;;;;;;;;;;;18.22;68.99;100190.03;4963719;28;1418;-53
2022/04/22 13:40:54;;;;;;;;;;;;;;;18.17;69.22;100192.28;4967595;28;1620;-61
2022/04/22 13:43:21;;;;;;;;;;;;;;;18.14;69.12;100186.38;4965938;28;1910;-61
2022/04/22 13:54:01;;;;;;;;;;;;;;;18.12;68.93;100165.09;4964588;28;1635;-61
2022/04/22 13:56:28;;;;;;;;;;;;;;;18.10;68.84;100153.69;4970625;28;1719;-53
2022/04/22 13:58:54;;;;;;;;;;;;;;;18.12;69.21;100159.75;4962332;28;1382;-60
2022/04/22 14:01:21;;;;;;;;;;;;;;;18.09;68.89;100147.50;4967952;28;1521;-61
2022/04/22 14:03:49;;;;;;;;;;;;;;;18.06;69.08;100138.91;4961044;28;1987;-61
2022/04/22 14:06:15;;;;;;;;;;;;;;;18.07;68.93;100137.94;4967786;28;1776;-60
2022/04/22 14:08:42;;;;;;;;;;;;;;;18.05;68.80;100137.25;4966931;28;1820;-61
2022/04/22 14:11:09;;;;;;;;;;;;;;;18.03;68.82;100144.56;4966003;28;1522;-53